createdAt,value
2022-08-23T00:00:40.473Z,19.66
2022-08-23T00:01:44.197Z,19.65
2022-08-23T00:02:48.228Z,19.65
2022-08-23T00:03:50.155Z,19.60
2022-08-23T00:05:07.770Z,19.64
2022-08-23T00:06:11.205Z,19.64
2022-08-23T00:07:13.642Z,19.61
2022-08-23T00:08:15.124Z,19.55
2022-08-23T00:09:17.325Z,19.53
2022-08-23T00:10:18.797Z,19.50
2022-08-23T00:11:28.450Z,19.53
2022-08-23T00:12:29.920Z,19.56
2022-08-23T00:13:47.204Z,19.57
2022-08-23T00:14:54.645Z,19.56
2022-08-23T00:15:56.087Z,19.49
2022-08-23T00:16:57.928Z,19.46
2022-08-23T00:17:59.481Z,19.41
2022-08-23T00:19:01.438Z,19.37
2022-08-23T00:20:04.848Z,19.34
2022-08-23T00:21:06.296Z,19.30
2022-08-23T00:22:08.343Z,19.26
2022-08-23T00:23:10.724Z,19.25
2022-08-23T00:24:12.973Z,19.23
2022-08-23T00:25:14.500Z,19.21
2022-08-23T00:26:15.923Z,19.18
2022-08-23T00:27:17.577Z,19.16
2022-08-23T00:28:18.971Z,19.11
2022-08-23T00:29:21.030Z,19.09
2022-08-23T00:30:22.508Z,19.07
2022-08-23T00:31:23.958Z,19.04
2022-08-23T00:32:27.397Z,19.02
2022-08-23T00:33:28.853Z,18.97
2022-08-23T00:34:30.283Z,18.94
2022-08-23T00:35:31.734Z,18.92
2022-08-23T00:36:33.194Z,18.87
2022-08-23T00:37:35.041Z,18.87
2022-08-23T00:38:36.621Z,18.85
2022-08-23T00:39:38.954Z,18.79
2022-08-23T00:40:41.861Z,18.75
2022-08-23T00:41:43.970Z,18.70
2022-08-23T00:42:53.958Z,18.67
2022-08-23T00:43:55.914Z,18.63
2022-08-23T00:44:58.887Z,18.60
2022-08-23T00:46:07.954Z,18.59
2022-08-23T00:47:10.983Z,18.65
2022-08-23T00:48:13.339Z,18.66
2022-08-23T00:49:16.309Z,18.68
2022-08-23T00:50:19.202Z,18.79
2022-08-23T00:51:43.089Z,18.83
2022-08-23T00:52:56.746Z,18.85
2022-08-23T00:53:59.625Z,18.89
2022-08-23T00:55:01.625Z,18.87
2022-08-23T00:56:05.611Z,18.86
2022-08-23T00:57:09.564Z,18.86
2022-08-23T00:58:12.661Z,18.87
2022-08-23T00:59:14.052Z,18.94
2022-08-23T01:00:15.616Z,18.98
2022-08-23T01:01:17.800Z,19.01
2022-08-23T01:02:19.480Z,19.04
2022-08-23T01:03:22.874Z,19.04
2022-08-23T01:04:27.166Z,19.06
2022-08-23T01:05:34.315Z,19.07
2022-08-23T01:06:44.592Z,19.03
2022-08-23T01:07:50.739Z,19.04
2022-08-23T01:08:55.208Z,18.98
2022-08-23T01:09:59.214Z,18.92
2022-08-23T01:11:09.172Z,18.88
2022-08-23T01:12:33.039Z,18.88
2022-08-23T01:13:43.603Z,18.87
2022-08-23T01:14:51.965Z,18.82
2022-08-23T01:16:00.161Z,18.78
2022-08-23T01:17:01.759Z,18.72
2022-08-23T01:18:05.556Z,18.69
2022-08-23T01:19:11.651Z,18.66
2022-08-23T01:20:16.747Z,18.61
2022-08-23T01:21:41.152Z,18.59
2022-08-23T01:22:51.940Z,18.55
2022-08-23T01:23:55.923Z,18.52
2022-08-23T01:25:07.398Z,18.49
2022-08-23T01:26:21.898Z,18.48
2022-08-23T01:27:24.457Z,18.45
2022-08-23T01:28:25.961Z,18.42
2022-08-23T01:29:27.372Z,18.40
2022-08-23T01:30:31.472Z,18.37
2022-08-23T01:31:33.183Z,18.35
2022-08-23T01:32:37.393Z,18.33
2022-08-23T01:33:39.556Z,18.31
2022-08-23T01:34:45.896Z,18.29
2022-08-23T01:35:56.082Z,18.32
2022-08-23T01:36:58.437Z,18.29
2022-08-23T01:37:59.969Z,18.28
2022-08-23T01:39:02.155Z,18.26
2022-08-23T01:40:04.792Z,18.23
2022-08-23T01:41:06.356Z,18.22
2022-08-23T01:42:07.867Z,18.28
2022-08-23T01:43:09.650Z,18.28
2022-08-23T01:44:11.788Z,18.30
2022-08-23T01:45:13.475Z,18.34
2022-08-23T01:46:18.883Z,18.41
2022-08-23T01:47:20.528Z,18.43
2022-08-23T01:48:22.585Z,18.49
2022-08-23T01:49:24.997Z,18.47
2022-08-23T01:50:27.424Z,18.49
2022-08-23T01:51:29.409Z,18.50
2022-08-23T01:52:31.560Z,18.56
2022-08-23T01:53:33.357Z,18.58
2022-08-23T01:54:34.769Z,18.55
2022-08-23T01:55:36.612Z,18.52
2022-08-23T01:56:39.491Z,18.49
2022-08-23T01:57:46.978Z,18.48
2022-08-23T01:58:51.476Z,18.43
2022-08-23T01:59:53.020Z,18.42
2022-08-23T02:00:54.579Z,18.43
2022-08-23T02:01:56.140Z,18.46
2022-08-23T02:02:58.012Z,18.47
2022-08-23T02:04:04.799Z,18.44
2022-08-23T02:05:07.574Z,18.41
2022-08-23T02:06:09.067Z,18.40
2022-08-23T02:07:11.063Z,18.38
2022-08-23T02:08:13.165Z,18.36
2022-08-23T02:09:17.910Z,18.36
2022-08-23T02:10:20.394Z,18.37
2022-08-23T02:11:22.708Z,18.39
2022-08-23T02:12:24.614Z,18.38
2022-08-23T02:13:30.643Z,18.40
2022-08-23T02:14:32.502Z,18.37
2022-08-23T02:15:35.208Z,18.34
2022-08-23T02:16:39.051Z,18.31
2022-08-23T02:17:43.841Z,18.29
2022-08-23T02:18:45.200Z,18.27
2022-08-23T02:19:46.622Z,18.24
2022-08-23T02:20:49.490Z,18.20
2022-08-23T02:21:51.297Z,18.19
2022-08-23T02:22:52.789Z,18.21
2022-08-23T02:23:54.218Z,18.28
2022-08-23T02:24:55.648Z,18.30
2022-08-23T02:25:57.265Z,18.29
2022-08-23T02:27:01.925Z,18.26
2022-08-23T02:28:04.315Z,18.29
2022-08-23T02:29:06.380Z,18.26
2022-08-23T02:30:08.623Z,18.23
2022-08-23T02:31:10.507Z,18.29
2022-08-23T02:32:15.370Z,18.34
2022-08-23T02:33:17.001Z,18.32
2022-08-23T02:34:19.362Z,18.28
2022-08-23T02:35:21.887Z,18.29
2022-08-23T02:36:23.436Z,18.26
2022-08-23T02:37:25.049Z,18.21
2022-08-23T02:38:26.477Z,18.16
2022-08-23T02:39:27.881Z,18.14
2022-08-23T02:40:29.292Z,18.11
2022-08-23T02:41:31.182Z,18.07
2022-08-23T02:42:32.588Z,18.04
2022-08-23T02:43:39.339Z,18.00
2022-08-23T02:44:42.417Z,17.97
2022-08-23T02:45:43.797Z,17.93
2022-08-23T02:46:45.415Z,17.91
2022-08-23T02:47:48.295Z,17.90
2022-08-23T02:49:00.029Z,17.90
2022-08-23T02:50:01.477Z,17.92
2022-08-23T02:51:04.506Z,17.93
2022-08-23T02:52:06.167Z,17.93
2022-08-23T02:53:07.664Z,17.92
2022-08-23T02:54:09.253Z,17.89
2022-08-23T02:55:11.263Z,17.84
2022-08-23T02:56:21.133Z,17.79
2022-08-23T02:57:24.104Z,17.75
2022-08-23T02:58:28.074Z,17.73
2022-08-23T02:59:29.518Z,17.71
2022-08-23T03:00:31.422Z,17.70
2022-08-23T03:01:34.337Z,17.69
2022-08-23T03:02:47.327Z,17.65
2022-08-23T03:03:48.771Z,17.64
2022-08-23T03:04:50.625Z,17.65
2022-08-23T03:05:52.447Z,17.63
2022-08-23T03:06:54.477Z,17.73
2022-08-23T03:07:56.253Z,17.72
2022-08-23T03:08:57.860Z,17.77
2022-08-23T03:09:59.236Z,17.85
2022-08-23T03:11:01.685Z,17.86
2022-08-23T03:12:11.508Z,17.89
2022-08-23T03:13:17.834Z,17.92
2022-08-23T03:14:21.336Z,17.93
2022-08-23T03:15:24.537Z,17.88
2022-08-23T03:16:25.949Z,17.84
2022-08-23T03:17:27.949Z,17.86
2022-08-23T03:18:29.533Z,17.83
2022-08-23T03:19:34.062Z,17.82
2022-08-23T03:20:35.693Z,17.80
2022-08-23T03:21:37.486Z,17.83
2022-08-23T03:22:39.170Z,17.82
2022-08-23T03:23:50.103Z,17.77
2022-08-23T03:24:51.676Z,17.75
2022-08-23T03:25:53.857Z,17.77
2022-08-23T03:26:59.726Z,17.81
2022-08-23T03:28:07.368Z,17.79
2022-08-23T03:29:12.361Z,17.74
2022-08-23T03:30:31.346Z,17.73
2022-08-23T03:31:33.729Z,17.78
2022-08-23T03:32:40.762Z,17.78
2022-08-23T03:33:51.155Z,17.73
2022-08-23T03:34:53.098Z,17.70
2022-08-23T03:35:57.864Z,17.69
2022-08-23T03:37:00.583Z,17.65
2022-08-23T03:38:02.593Z,17.61
2022-08-23T03:39:05.291Z,17.58
2022-08-23T03:40:06.938Z,17.55
2022-08-23T03:41:09.166Z,17.51
2022-08-23T03:42:10.616Z,17.49
2022-08-23T03:43:12.131Z,17.46
2022-08-23T03:44:13.700Z,17.42
2022-08-23T03:45:18.252Z,17.43
2022-08-23T03:46:19.813Z,17.42
2022-08-23T03:47:21.287Z,17.41
2022-08-23T03:48:25.869Z,17.43
2022-08-23T03:49:27.591Z,17.42
2022-08-23T03:50:31.248Z,17.42
2022-08-23T03:51:33.181Z,17.44
2022-08-23T03:52:35.118Z,17.42
2022-08-23T03:53:36.516Z,17.40
2022-08-23T03:54:39.397Z,17.40
2022-08-23T03:55:43.014Z,17.44
2022-08-23T03:56:55.661Z,17.46
2022-08-23T03:57:58.346Z,17.46
2022-08-23T03:59:01.347Z,17.50
2022-08-23T04:00:03.702Z,17.51
2022-08-23T04:01:15.638Z,17.55
2022-08-23T04:02:17.141Z,17.55
2022-08-23T04:03:18.728Z,17.54
2022-08-23T04:04:40.445Z,17.61
2022-08-23T04:06:04.311Z,17.69
2022-08-23T04:07:06.536Z,17.65
2022-08-23T04:08:10.486Z,17.71
2022-08-23T04:09:15.372Z,17.70
2022-08-23T04:10:17.168Z,17.71
2022-08-23T04:11:23.594Z,17.69
2022-08-23T04:12:32.058Z,17.69
2022-08-23T04:13:33.945Z,17.70
2022-08-23T04:14:36.858Z,17.70
2022-08-23T04:15:38.313Z,17.70
2022-08-23T04:16:41.116Z,17.65
2022-08-23T04:17:44.122Z,17.65
2022-08-23T04:18:46.134Z,17.61
2022-08-23T04:19:49.103Z,17.59
2022-08-23T04:20:50.841Z,17.59
2022-08-23T04:21:55.585Z,17.54
2022-08-23T04:22:58.775Z,17.52
2022-08-23T04:24:02.444Z,17.49
2022-08-23T04:25:04.401Z,17.43
2022-08-23T04:26:12.004Z,17.38
2022-08-23T04:27:15.596Z,17.42
2022-08-23T04:28:18.209Z,17.42
2022-08-23T04:29:28.514Z,17.38
2022-08-23T04:30:35.933Z,17.41
2022-08-23T04:31:38.825Z,17.42
2022-08-23T04:32:42.839Z,17.44
2022-08-23T04:33:45.580Z,17.56
2022-08-23T04:34:53.839Z,17.58
2022-08-23T04:35:55.440Z,17.60
2022-08-23T04:36:57.486Z,17.63
2022-08-23T04:37:58.992Z,17.62
2022-08-23T04:39:01.468Z,17.58
2022-08-23T04:40:03.449Z,17.54
2022-08-23T04:41:13.915Z,17.52
2022-08-23T04:42:15.924Z,17.53
2022-08-23T04:43:18.117Z,17.55
2022-08-23T04:44:20.103Z,17.55
2022-08-23T04:45:23.433Z,17.55
2022-08-23T04:46:27.130Z,17.56
2022-08-23T04:47:30.120Z,17.59
2022-08-23T04:48:35.264Z,17.61
2022-08-23T04:49:36.998Z,17.58
2022-08-23T04:50:38.697Z,17.62
2022-08-23T04:51:52.917Z,17.71
2022-08-23T04:52:55.974Z,17.70
2022-08-23T04:53:57.351Z,17.74
2022-08-23T04:55:17.194Z,17.70
2022-08-23T04:56:22.709Z,17.68
2022-08-23T04:57:25.189Z,17.65
2022-08-23T04:58:26.667Z,17.69
2022-08-23T04:59:28.092Z,17.67
2022-08-23T05:00:29.565Z,17.68
2022-08-23T05:01:32.563Z,17.69
2022-08-23T05:02:34.722Z,17.74
2022-08-23T05:03:36.666Z,17.76
2022-08-23T05:04:38.090Z,17.75
2022-08-23T05:05:39.505Z,17.75
2022-08-23T05:06:41.023Z,17.76
2022-08-23T05:07:43.242Z,17.78
2022-08-23T05:08:45.580Z,17.83
2022-08-23T05:09:46.968Z,17.87
2022-08-23T05:10:48.449Z,17.90
2022-08-23T05:11:49.865Z,17.91
2022-08-23T05:12:52.176Z,17.93
2022-08-23T05:13:55.652Z,17.94
2022-08-23T05:14:57.687Z,17.98
2022-08-23T05:15:59.216Z,17.97
2022-08-23T05:17:04.978Z,18.04
2022-08-23T05:18:09.403Z,18.04
2022-08-23T05:19:11.313Z,18.02
2022-08-23T05:20:18.088Z,18.04
2022-08-23T05:21:21.180Z,18.08
2022-08-23T05:22:22.982Z,18.08
2022-08-23T05:23:44.588Z,18.11
2022-08-23T05:24:54.955Z,18.15
2022-08-23T05:25:57.417Z,18.30
2022-08-23T05:27:08.643Z,18.49
2022-08-23T05:28:12.585Z,18.59
2022-08-23T05:29:15.097Z,18.63
2022-08-23T05:30:20.598Z,18.66
2022-08-23T05:31:24.234Z,18.74
2022-08-23T05:32:32.811Z,18.75
2022-08-23T05:33:35.476Z,18.75
2022-08-23T05:34:37.113Z,18.76
2022-08-23T05:35:44.275Z,18.81
2022-08-23T05:36:48.270Z,18.81
2022-08-23T05:37:58.751Z,18.83
2022-08-23T05:39:00.261Z,18.84
2022-08-23T05:40:02.925Z,18.84
2022-08-23T05:41:08.201Z,18.85
2022-08-23T05:42:11.414Z,18.83
2022-08-23T05:43:12.924Z,18.87
2022-08-23T05:44:14.357Z,18.90
2022-08-23T05:45:21.156Z,18.94
2022-08-23T05:46:26.631Z,18.92
2022-08-23T05:47:50.247Z,18.93
2022-08-23T05:49:11.946Z,18.93
2022-08-23T05:50:17.274Z,18.90
2022-08-23T05:51:23.259Z,18.88
2022-08-23T05:52:25.179Z,18.88
2022-08-23T05:53:26.634Z,18.90
2022-08-23T05:54:28.125Z,18.92
2022-08-23T05:55:49.242Z,18.92
2022-08-23T05:56:52.136Z,18.97
2022-08-23T05:57:53.536Z,18.97
2022-08-23T05:58:59.877Z,18.97
2022-08-23T06:00:02.307Z,18.97
2022-08-23T06:01:04.666Z,19.02
2022-08-23T06:02:06.284Z,19.02
2022-08-23T06:03:07.979Z,19.01
2022-08-23T06:04:10.820Z,19.05
2022-08-23T06:05:12.277Z,19.06
2022-08-23T06:06:14.627Z,19.06
2022-08-23T06:07:17.776Z,19.05
2022-08-23T06:08:19.249Z,19.06
2022-08-23T06:09:20.812Z,19.12
2022-08-23T06:10:22.446Z,19.12
2022-08-23T06:11:35.068Z,19.14
2022-08-23T06:12:36.696Z,19.16
2022-08-23T06:13:42.309Z,19.18
2022-08-23T06:14:44.565Z,19.16
2022-08-23T06:15:46.012Z,19.17
2022-08-23T06:16:51.614Z,19.19
2022-08-23T06:17:57.402Z,19.19
2022-08-23T06:18:59.773Z,19.30
2022-08-23T06:20:30.217Z,19.36
2022-08-23T06:21:37.991Z,19.38
2022-08-23T06:22:39.438Z,19.39
2022-08-23T06:23:41.570Z,19.40
2022-08-23T06:24:43.041Z,19.46
2022-08-23T06:25:49.765Z,19.46
2022-08-23T06:26:54.058Z,19.49
2022-08-23T06:27:55.537Z,19.62
2022-08-23T06:29:00.281Z,19.96
2022-08-23T06:30:01.800Z,20.55
2022-08-23T06:31:05.841Z,20.82
2022-08-23T06:32:10.301Z,20.99
2022-08-23T06:33:18.924Z,21.17
2022-08-23T06:34:22.086Z,21.42
2022-08-23T06:35:39.056Z,21.98
2022-08-23T06:36:57.482Z,22.70
2022-08-23T06:38:17.892Z,23.62
2022-08-23T06:39:38.489Z,24.27
2022-08-23T06:40:51.804Z,25.03
2022-08-23T06:42:22.187Z,25.53
2022-08-23T06:43:27.535Z,26.22
2022-08-23T06:44:47.597Z,26.52
2022-08-23T06:45:54.883Z,26.66
2022-08-23T06:46:59.868Z,27.17
2022-08-23T06:48:01.590Z,27.64
2022-08-23T06:49:04.146Z,28.01
2022-08-23T06:50:05.792Z,28.42
2022-08-23T06:51:27.816Z,28.79
2022-08-23T06:52:31.311Z,29.01
2022-08-23T06:53:54.448Z,29.36
2022-08-23T06:55:14.234Z,29.77
2022-08-23T06:56:42.770Z,29.89
2022-08-23T06:57:50.507Z,29.84
2022-08-23T06:58:57.960Z,29.90
2022-08-23T07:00:06.602Z,29.82
2022-08-23T07:01:47.114Z,29.84
2022-08-23T07:02:55.739Z,29.54
2022-08-23T07:04:18.066Z,29.69
2022-08-23T07:05:48.921Z,28.80
2022-08-23T07:06:56.168Z,28.74
2022-08-23T07:07:57.644Z,28.71
2022-08-23T07:08:59.071Z,28.66
2022-08-23T07:10:00.438Z,28.65
2022-08-23T07:11:01.996Z,28.40
2022-08-23T07:12:03.762Z,28.49
2022-08-23T07:13:06.173Z,28.71
2022-08-23T07:14:09.470Z,28.93
2022-08-23T07:15:12.091Z,29.10
2022-08-23T07:16:16.360Z,28.83
2022-08-23T07:17:17.822Z,28.37
2022-08-23T07:18:19.336Z,28.06
2022-08-23T07:19:21.984Z,27.77
2022-08-23T07:20:30.818Z,27.45
2022-08-23T07:21:33.056Z,27.01
2022-08-23T07:22:34.528Z,26.65
2022-08-23T07:23:36.146Z,26.26
2022-08-23T07:24:40.336Z,26.06
2022-08-23T07:25:41.858Z,25.95
2022-08-23T07:26:46.522Z,25.72
2022-08-23T07:27:48.018Z,25.61
2022-08-23T07:28:50.797Z,25.53
2022-08-23T07:29:52.304Z,25.28
2022-08-23T07:30:53.913Z,25.25
2022-08-23T07:31:56.260Z,25.19
2022-08-23T07:32:58.122Z,25.13
2022-08-23T07:34:03.676Z,25.17
2022-08-23T07:35:07.074Z,25.20
2022-08-23T07:36:09.612Z,25.05
2022-08-23T07:37:15.397Z,24.91
2022-08-23T07:38:18.032Z,24.98
2022-08-23T07:39:20.469Z,24.95
2022-08-23T07:40:22.032Z,24.90
2022-08-23T07:41:31.041Z,24.87
2022-08-23T07:42:34.070Z,24.83
2022-08-23T07:43:35.786Z,24.77
2022-08-23T07:44:37.248Z,24.80
2022-08-23T07:45:39.629Z,24.89
2022-08-23T07:46:46.662Z,24.79
2022-08-23T07:47:50.559Z,24.75
2022-08-23T07:48:54.615Z,24.77
2022-08-23T07:49:59.366Z,24.82
2022-08-23T07:51:02.951Z,24.72
2022-08-23T07:52:04.633Z,24.75
2022-08-23T07:53:06.781Z,24.72
2022-08-23T07:54:09.441Z,24.72
2022-08-23T07:55:19.309Z,24.65
2022-08-23T07:56:40.982Z,24.76
2022-08-23T07:57:49.336Z,24.75
2022-08-23T07:59:20.055Z,24.70
2022-08-23T08:00:39.951Z,24.77
2022-08-23T08:02:01.041Z,24.80
2022-08-23T08:03:02.731Z,24.84
2022-08-23T08:04:16.142Z,24.76
2022-08-23T08:05:21.915Z,24.68
2022-08-23T08:06:26.835Z,24.63
2022-08-23T08:07:28.277Z,24.61
2022-08-23T08:08:36.861Z,24.58
2022-08-23T08:09:39.753Z,24.55
2022-08-23T08:10:42.344Z,24.70
2022-08-23T08:11:45.181Z,24.66
2022-08-23T08:12:47.624Z,24.65
2022-08-23T08:13:53.196Z,24.59
2022-08-23T08:14:55.076Z,24.53
2022-08-23T08:16:01.562Z,24.57
2022-08-23T08:17:05.341Z,24.55
2022-08-23T08:18:25.038Z,24.50
2022-08-23T08:19:45.173Z,24.53
2022-08-23T08:21:22.073Z,24.59
2022-08-23T08:22:51.030Z,24.62
2022-08-23T08:24:07.249Z,24.60
2022-08-23T08:25:18.565Z,24.70
2022-08-23T08:26:21.057Z,24.75
2022-08-23T08:27:28.212Z,24.67
2022-08-23T08:28:29.702Z,24.65
2022-08-23T08:29:31.317Z,24.60
2022-08-23T08:30:32.722Z,24.61
2022-08-23T08:31:36.303Z,24.64
2022-08-23T08:32:37.887Z,24.71
2022-08-23T08:33:40.303Z,24.63
2022-08-23T08:34:42.792Z,24.61
2022-08-23T08:35:48.532Z,24.70
2022-08-23T08:36:59.506Z,24.72
2022-08-23T08:38:02.791Z,24.65
2022-08-23T08:39:06.047Z,24.62
2022-08-23T08:40:08.332Z,24.62
2022-08-23T08:41:10.699Z,24.60
2022-08-23T08:42:20.216Z,24.61
2022-08-23T08:43:52.203Z,24.62
2022-08-23T08:44:55.987Z,24.68
2022-08-23T08:46:09.872Z,24.71
2022-08-23T08:47:25.345Z,24.68
2022-08-23T08:48:28.090Z,24.71
2022-08-23T08:49:43.197Z,24.81
2022-08-23T08:50:49.634Z,24.96
2022-08-23T08:51:57.544Z,24.94
2022-08-23T08:53:01.906Z,25.03
2022-08-23T08:54:27.423Z,25.02
2022-08-23T08:55:49.358Z,25.00
2022-08-23T08:56:52.569Z,24.95
2022-08-23T08:57:57.480Z,25.02
2022-08-23T08:59:01.070Z,25.08
2022-08-23T09:00:08.192Z,25.11
2022-08-23T09:01:12.194Z,25.14
2022-08-23T09:02:22.078Z,25.11
2022-08-23T09:03:35.607Z,25.01
2022-08-23T09:04:38.384Z,25.03
2022-08-23T09:05:47.977Z,25.13
2022-08-23T09:07:12.448Z,25.10
2022-08-23T09:08:35.179Z,25.16
2022-08-23T09:09:55.265Z,25.21
2022-08-23T09:11:03.461Z,25.26
2022-08-23T09:12:04.848Z,25.32
2022-08-23T09:13:19.766Z,25.33
2022-08-23T09:14:28.006Z,25.30
2022-08-23T09:15:39.373Z,25.29
2022-08-23T09:16:41.034Z,25.47
2022-08-23T09:17:47.517Z,25.48
2022-08-23T09:18:49.270Z,25.49
2022-08-23T09:19:52.383Z,25.58
2022-08-23T09:20:54.520Z,25.52
2022-08-23T09:22:04.806Z,25.48
2022-08-23T09:23:21.667Z,25.47
2022-08-23T09:24:25.986Z,25.54
2022-08-23T09:25:59.885Z,25.59
2022-08-23T09:27:09.309Z,25.61
2022-08-23T09:28:12.854Z,25.60
2022-08-23T09:29:19.757Z,25.62
2022-08-23T09:30:21.372Z,25.64
2022-08-23T09:31:39.649Z,25.66
2022-08-23T09:32:42.817Z,25.68
2022-08-23T09:33:46.176Z,25.70
2022-08-23T09:35:17.150Z,25.85
2022-08-23T09:36:26.183Z,25.99
2022-08-23T09:37:45.236Z,25.99
2022-08-23T09:38:55.095Z,26.03
2022-08-23T09:40:13.136Z,25.99
2022-08-23T09:41:19.108Z,25.93
2022-08-23T09:42:34.042Z,25.93
2022-08-23T09:43:43.116Z,25.98
2022-08-23T09:44:45.068Z,26.00
2022-08-23T09:45:48.162Z,26.09
2022-08-23T09:46:50.059Z,26.22
2022-08-23T09:47:54.780Z,26.21
2022-08-23T09:48:58.744Z,26.23
2022-08-23T09:50:15.624Z,26.28
2022-08-23T09:51:23.155Z,26.38
2022-08-23T09:52:33.711Z,26.44
2022-08-23T09:53:40.992Z,26.40
2022-08-23T09:54:47.518Z,26.44
2022-08-23T09:55:51.980Z,26.44
2022-08-23T09:56:55.186Z,26.47
2022-08-23T09:57:56.645Z,26.48
2022-08-23T09:58:58.236Z,26.48
2022-08-23T10:00:18.431Z,26.51
2022-08-23T10:01:29.145Z,26.52
2022-08-23T10:02:39.208Z,26.50
2022-08-23T10:03:46.513Z,26.53
2022-08-23T10:05:04.889Z,26.52
2022-08-23T10:06:11.020Z,26.55
2022-08-23T10:07:21.541Z,26.53
2022-08-23T10:08:32.161Z,26.50
2022-08-23T10:09:34.856Z,26.55
2022-08-23T10:10:42.364Z,26.59
2022-08-23T10:11:45.668Z,26.67
2022-08-23T10:12:47.607Z,26.74
2022-08-23T10:13:51.473Z,26.80
2022-08-23T10:14:52.940Z,26.85
2022-08-23T10:16:15.950Z,26.83
2022-08-23T10:17:36.237Z,26.85
2022-08-23T10:18:51.335Z,26.85
2022-08-23T10:20:16.515Z,27.03
2022-08-23T10:21:25.121Z,26.98
2022-08-23T10:22:28.800Z,26.94
2022-08-23T10:23:52.092Z,26.98
2022-08-23T10:25:04.199Z,27.02
2022-08-23T10:26:10.491Z,27.11
2022-08-23T10:27:21.100Z,27.14
2022-08-23T10:28:35.777Z,27.08
2022-08-23T10:29:45.093Z,27.15
2022-08-23T10:31:05.209Z,27.23
2022-08-23T10:32:10.389Z,27.34
2022-08-23T10:33:26.309Z,27.31
2022-08-23T10:34:29.917Z,27.30
2022-08-23T10:35:31.668Z,27.31
2022-08-23T10:36:33.470Z,27.38
2022-08-23T10:37:34.975Z,27.37
2022-08-23T10:38:45.259Z,27.39
2022-08-23T10:40:03.500Z,27.37
2022-08-23T10:41:06.440Z,27.41
2022-08-23T10:42:11.302Z,27.36
2022-08-23T10:43:22.602Z,27.30
2022-08-23T10:44:30.937Z,27.31
2022-08-23T10:45:35.930Z,27.35
2022-08-23T10:46:48.695Z,27.50
2022-08-23T10:47:57.024Z,27.51
2022-08-23T10:48:59.269Z,27.50
2022-08-23T10:50:13.088Z,27.46
2022-08-23T10:51:21.270Z,27.52
2022-08-23T10:52:29.617Z,27.68
2022-08-23T10:53:39.673Z,27.81
2022-08-23T10:54:45.425Z,27.86
2022-08-23T10:55:54.803Z,27.90
2022-08-23T10:56:58.661Z,27.89
2022-08-23T10:58:01.687Z,27.85
2022-08-23T10:59:07.485Z,27.89
2022-08-23T11:00:13.359Z,28.02
2022-08-23T11:01:19.290Z,28.13
2022-08-23T11:02:34.800Z,28.14
2022-08-23T11:04:00.597Z,28.23
2022-08-23T11:05:22.063Z,28.24
2022-08-23T11:06:26.020Z,28.23
2022-08-23T11:07:29.958Z,28.32
2022-08-23T11:08:36.001Z,28.24
2022-08-23T11:10:16.305Z,28.18
2022-08-23T11:11:52.271Z,28.16
2022-08-23T11:12:59.668Z,28.22
2022-08-23T11:14:04.058Z,28.23
2022-08-23T11:15:10.934Z,28.24
2022-08-23T11:16:23.339Z,28.30
2022-08-23T11:17:31.062Z,28.39
2022-08-23T11:18:38.393Z,28.49
2022-08-23T11:19:59.590Z,28.48
2022-08-23T11:21:08.190Z,28.52
2022-08-23T11:22:18.823Z,28.45
2022-08-23T11:23:37.586Z,28.46
2022-08-23T11:24:49.892Z,28.64
2022-08-23T11:25:51.372Z,28.74
2022-08-23T11:26:52.800Z,28.84
2022-08-23T11:28:12.849Z,28.87
2022-08-23T11:29:20.052Z,28.87
2022-08-23T11:30:33.551Z,28.88
2022-08-23T11:31:43.152Z,28.93
2022-08-23T11:32:46.625Z,28.98
2022-08-23T11:33:50.473Z,29.06
2022-08-23T11:35:12.192Z,29.01
2022-08-23T11:36:18.142Z,28.98
2022-08-23T11:37:19.497Z,29.02
2022-08-23T11:38:43.477Z,29.03
2022-08-23T11:40:05.872Z,29.01
2022-08-23T11:41:27.658Z,29.11
2022-08-23T11:42:37.877Z,29.04
2022-08-23T11:43:39.974Z,29.05
2022-08-23T11:44:46.755Z,29.01
2022-08-23T11:45:48.524Z,29.02
2022-08-23T11:46:51.433Z,29.08
2022-08-23T11:48:11.355Z,29.18
2022-08-23T11:49:41.541Z,29.13
2022-08-23T11:50:57.838Z,29.11
2022-08-23T11:52:05.771Z,29.18
2022-08-23T11:53:07.185Z,29.22
2022-08-23T11:54:20.762Z,29.27
2022-08-23T11:55:27.923Z,29.28
2022-08-23T11:56:38.520Z,29.33
2022-08-23T11:57:57.444Z,29.37
2022-08-23T11:59:17.680Z,29.41
2022-08-23T12:00:29.064Z,29.33
2022-08-23T12:01:35.185Z,29.30
2022-08-23T12:02:51.776Z,29.26
2022-08-23T12:03:58.460Z,29.17
2022-08-23T12:05:02.448Z,29.21
2022-08-23T12:06:14.260Z,29.26
2022-08-23T12:07:36.060Z,29.23
2022-08-23T12:08:55.002Z,29.28
2022-08-23T12:09:56.557Z,29.37
2022-08-23T12:11:00.296Z,29.44
2022-08-23T12:12:01.705Z,29.41
2022-08-23T12:13:18.506Z,29.46
2022-08-23T12:14:46.043Z,29.55
2022-08-23T12:16:06.358Z,29.56
2022-08-23T12:17:16.969Z,29.58
2022-08-23T12:18:24.993Z,29.60
2022-08-23T12:19:46.978Z,29.68
2022-08-23T12:20:50.337Z,29.74
2022-08-23T12:21:54.541Z,29.81
2022-08-23T12:22:58.918Z,29.89
2022-08-23T12:24:02.870Z,29.85
2022-08-23T12:25:08.253Z,29.85
2022-08-23T12:26:13.542Z,29.80
2022-08-23T12:27:24.072Z,29.87
2022-08-23T12:28:35.055Z,29.93
2022-08-23T12:29:36.460Z,29.91
2022-08-23T12:30:56.292Z,29.97
2022-08-23T12:32:03.491Z,30.07
2022-08-23T12:33:23.547Z,30.13
2022-08-23T12:34:47.261Z,30.16
2022-08-23T12:35:54.951Z,30.22
2022-08-23T12:37:14.862Z,30.18
2022-08-23T12:38:34.843Z,30.12
2022-08-23T12:39:57.435Z,30.17
2022-08-23T12:41:11.897Z,30.34
2022-08-23T12:42:14.652Z,30.35
2022-08-23T12:43:22.462Z,30.37
2022-08-23T12:44:25.850Z,30.34
2022-08-23T12:45:35.333Z,30.31
2022-08-23T12:46:36.796Z,30.28
2022-08-23T12:47:42.822Z,30.18
2022-08-23T12:48:47.323Z,30.19
2022-08-23T12:49:55.201Z,30.27
2022-08-23T12:50:57.962Z,30.28
2022-08-23T12:52:01.027Z,30.32
2022-08-23T12:53:05.041Z,30.31
2022-08-23T12:54:13.772Z,30.37
2022-08-23T12:55:16.889Z,30.45
2022-08-23T12:56:20.245Z,30.37
2022-08-23T12:57:25.889Z,30.27
2022-08-23T12:58:33.199Z,30.21
2022-08-23T12:59:40.749Z,30.26
2022-08-23T13:00:51.190Z,30.32
2022-08-23T13:01:52.913Z,30.52
2022-08-23T13:03:00.059Z,30.63
2022-08-23T13:04:04.494Z,30.68
2022-08-23T13:05:13.356Z,30.75
2022-08-23T13:06:18.962Z,30.80
2022-08-23T13:07:22.510Z,30.81
2022-08-23T13:08:34.298Z,30.76
2022-08-23T13:09:38.315Z,30.76
2022-08-23T13:10:41.451Z,30.62
2022-08-23T13:11:43.888Z,30.67
2022-08-23T13:12:45.369Z,30.73
2022-08-23T13:13:48.862Z,30.69
2022-08-23T13:14:52.023Z,30.65
2022-08-23T13:15:55.676Z,30.58
2022-08-23T13:16:57.480Z,30.75
2022-08-23T13:17:59.451Z,30.81
2022-08-23T13:19:13.718Z,30.90
2022-08-23T13:20:21.950Z,30.97
2022-08-23T13:21:23.467Z,31.07
2022-08-23T13:22:25.855Z,31.01
2022-08-23T13:23:30.123Z,30.95
2022-08-23T13:24:38.541Z,31.03
2022-08-23T13:25:41.740Z,31.17
2022-08-23T13:26:43.870Z,31.31
2022-08-23T13:27:45.461Z,31.18
2022-08-23T13:29:05.280Z,31.17
2022-08-23T13:30:09.442Z,31.36
2022-08-23T13:31:10.942Z,31.38
2022-08-23T13:32:25.018Z,31.38
2022-08-23T13:33:28.455Z,31.39
2022-08-23T13:34:33.192Z,31.48
2022-08-23T13:35:36.419Z,31.58
2022-08-23T13:36:37.876Z,31.71
2022-08-23T13:37:44.761Z,31.74
2022-08-23T13:38:46.668Z,31.84
2022-08-23T13:40:08.411Z,31.96
2022-08-23T13:41:11.661Z,32.05
2022-08-23T13:42:13.201Z,32.10
2022-08-23T13:43:19.464Z,32.19
2022-08-23T13:44:21.149Z,32.20
2022-08-23T13:45:45.948Z,32.10
2022-08-23T13:46:48.107Z,32.18
2022-08-23T13:47:50.776Z,32.21
2022-08-23T13:48:52.162Z,32.29
2022-08-23T13:49:54.467Z,32.26
2022-08-23T13:51:16.465Z,32.26
2022-08-23T13:52:45.919Z,32.42
2022-08-23T13:53:39.412Z,32.46
2022-08-23T13:54:40.833Z,32.43
2022-08-23T13:55:55.953Z,32.24
2022-08-23T13:57:00.500Z,32.05
2022-08-23T13:58:01.931Z,32.04
2022-08-23T13:59:31.327Z,31.89
2022-08-23T14:00:33.362Z,31.97
2022-08-23T14:01:35.116Z,32.05
2022-08-23T14:02:37.025Z,32.16
2022-08-23T14:03:38.527Z,32.38
2022-08-23T14:04:40.791Z,32.58
2022-08-23T14:05:42.271Z,32.78
2022-08-23T14:06:43.728Z,32.88
2022-08-23T14:07:50.356Z,32.94
2022-08-23T14:08:51.812Z,33.02
2022-08-23T14:09:55.214Z,33.12
2022-08-23T14:10:56.931Z,33.26
2022-08-23T14:11:59.290Z,33.35
2022-08-23T14:13:00.927Z,33.43
2022-08-23T14:14:02.722Z,33.36
2022-08-23T14:15:04.917Z,33.40
2022-08-23T14:17:30.873Z,33.32
2022-08-23T14:18:32.627Z,33.09